createdAt,value
2023-03-26T00:00:34.393Z,2.49
2023-03-26T00:01:34.938Z,2.48
2023-03-26T00:02:35.298Z,2.47
2023-03-26T00:03:36.362Z,2.44
2023-03-26T00:04:35.852Z,2.43
2023-03-26T00:05:36.276Z,2.38
2023-03-26T00:06:38.333Z,2.33
2023-03-26T00:07:36.903Z,2.3
2023-03-26T00:08:38.691Z,2.31
2023-03-26T00:09:37.731Z,2.35
2023-03-26T00:10:41.340Z,2.38
2023-03-26T00:11:38.563Z,2.39
2023-03-26T00:12:39.186Z,2.41
2023-03-26T00:13:39.702Z,2.43
2023-03-26T00:14:40.135Z,2.42
2023-03-26T00:15:40.011Z,2.41
2023-03-26T00:16:41.207Z,2.41
2023-03-26T00:17:40.919Z,2.42
2023-03-26T00:18:42.195Z,2.4
2023-03-26T00:19:41.581Z,2.43
2023-03-26T00:20:41.997Z,2.38
2023-03-26T00:21:42.216Z,2.33
2023-03-26T00:22:42.772Z,2.31
2023-03-26T00:23:43.675Z,2.3
2023-03-26T00:24:43.354Z,2.32
2023-03-26T00:25:43.690Z,2.27
2023-03-26T00:26:45.020Z,2.27
2023-03-26T00:27:44.551Z,2.29
2023-03-26T00:28:44.843Z,2.3
2023-03-26T00:29:45.028Z,2.29
2023-03-26T00:30:45.471Z,2.3
2023-03-26T00:31:45.759Z,2.29
2023-03-26T00:32:53.606Z,2.3
2023-03-26T00:33:46.599Z,2.28
2023-03-26T00:34:47.066Z,2.31
2023-03-26T00:35:52.876Z,2.32
2023-03-26T00:36:50.512Z,2.3
2023-03-26T00:37:50.929Z,2.31
2023-03-26T00:38:51.712Z,2.29
2023-03-26T00:39:51.462Z,2.28
2023-03-26T00:40:52.384Z,2.29
2023-03-26T00:41:52.286Z,2.31
2023-03-26T00:42:55.664Z,2.29
2023-03-26T00:43:56.987Z,2.28
2023-03-26T00:44:54.360Z,2.26
2023-03-26T00:45:55.562Z,2.25
2023-03-26T00:46:55.089Z,2.21
2023-03-26T00:47:55.658Z,2.02
2023-03-26T00:48:55.813Z,1.93
2023-03-26T00:49:56.441Z,1.91
2023-03-26T00:50:57.482Z,1.92
2023-03-26T00:51:56.955Z,1.9
2023-03-26T00:52:57.392Z,1.89
2023-03-26T00:53:58.326Z,1.91
2023-03-26T00:54:59.534Z,1.92
2023-03-26T00:55:58.538Z,1.93
2023-03-26T00:56:58.748Z,1.94
2023-03-26T00:57:59.379Z,1.95
2023-03-26T00:58:59.361Z,1.89
2023-03-26T00:59:59.878Z,1.85
2023-03-26T01:01:02.841Z,1.82
2023-03-26T01:02:00.641Z,1.84
2023-03-26T01:03:04.964Z,1.85
2023-03-26T01:09:22.090Z,1.79
2023-03-26T01:10:19.584Z,1.79
2023-03-26T01:11:25.778Z,1.79
2023-03-26T01:12:25.787Z,1.8
2023-03-26T01:13:24.539Z,1.79
2023-03-26T01:14:26.388Z,1.8
2023-03-26T01:15:24.227Z,1.76
2023-03-26T01:17:28.806Z,1.69
2023-03-26T01:18:31.842Z,1.68
2023-03-26T01:20:38.723Z,1.73
2023-03-26T01:21:36.579Z,1.77
2023-03-26T01:22:37.465Z,1.77
2023-03-26T01:23:44.572Z,1.74
2023-03-26T01:24:37.527Z,1.73
2023-03-26T01:28:41.742Z,1.55
2023-03-26T01:44:26.492Z,1.78
2023-03-26T01:45:24.148Z,1.8
2023-03-26T01:46:23.968Z,1.82
2023-03-26T01:47:22.845Z,1.83
2023-03-26T01:49:30.184Z,1.83
2023-03-26T01:50:27.675Z,1.83
2023-03-26T01:51:33.816Z,1.73
2023-03-26T01:52:31.410Z,1.67
2023-03-26T01:53:33.328Z,1.53
2023-03-26T01:54:32.921Z,1.54
2023-03-26T02:11:14.344Z,1.78
2023-03-26T02:12:16.635Z,1.75
2023-03-26T02:13:14.806Z,1.74
2023-03-26T02:14:15.362Z,1.75
2023-03-26T02:15:14.613Z,1.74
2023-03-26T02:16:17.144Z,1.66
2023-03-26T02:17:15.452Z,1.66
2023-03-26T02:18:15.764Z,1.63
2023-03-26T02:19:16.217Z,1.65
2023-03-26T02:20:17.316Z,1.6
2023-03-26T02:21:20.536Z,1.5
2023-03-26T02:22:20.806Z,1.5
2023-03-26T02:23:18.362Z,1.52
2023-03-26T02:24:19.635Z,1.54
2023-03-26T02:25:20.884Z,1.55
2023-03-26T02:26:20.438Z,1.55
2023-03-26T02:27:19.730Z,1.52
2023-03-26T02:28:20.332Z,1.48
2023-03-26T02:29:20.743Z,1.49
2023-03-26T02:30:26.009Z,1.54
2023-03-26T02:31:23.455Z,1.53
2023-03-26T02:32:23.702Z,1.46
2023-03-26T02:33:24.254Z,1.43
2023-03-26T02:34:24.578Z,1.42
2023-03-26T02:35:25.095Z,1.4
2023-03-26T02:36:26.538Z,1.41
2023-03-26T02:37:25.532Z,1.48
2023-03-26T02:38:30.139Z,1.5
2023-03-26T02:39:27.472Z,1.44
2023-03-26T02:40:27.893Z,1.44
2023-03-26T02:41:28.212Z,1.37
2023-03-26T02:42:28.467Z,1.43
2023-03-26T02:43:28.970Z,1.55
2023-03-26T02:44:29.282Z,1.52
2023-03-26T02:45:29.524Z,1.52
2023-03-26T02:46:30.017Z,1.61
2023-03-26T02:47:30.305Z,1.68
2023-03-26T02:48:30.810Z,1.68
2023-03-26T02:49:31.149Z,1.69
2023-03-26T02:50:31.341Z,1.66
2023-03-26T02:51:32.154Z,1.59
2023-03-26T02:52:32.270Z,1.62
2023-03-26T02:53:32.583Z,1.54
2023-03-26T02:54:34.189Z,1.48
2023-03-26T02:55:33.328Z,1.52
2023-03-26T02:56:33.998Z,1.52
2023-03-26T02:57:33.843Z,1.5
2023-03-26T02:58:34.171Z,1.43
2023-03-26T02:59:34.681Z,1.43
2023-03-26T03:00:35.495Z,1.46
2023-03-26T03:01:35.464Z,1.46
2023-03-26T03:02:35.668Z,1.47
2023-03-26T03:03:35.926Z,1.45
2023-03-26T03:04:36.663Z,1.42
2023-03-26T03:05:36.655Z,1.41
2023-03-26T03:06:37.590Z,1.45
2023-03-26T03:07:37.509Z,1.49
2023-03-26T03:08:37.815Z,1.48
2023-03-26T03:09:38.221Z,1.46
2023-03-26T03:10:38.451Z,1.51
2023-03-26T03:11:40.374Z,1.55
2023-03-26T03:12:39.464Z,1.55
2023-03-26T03:13:39.610Z,1.52
2023-03-26T03:14:40.004Z,1.51
2023-03-26T03:15:40.209Z,1.49
2023-03-26T03:16:40.688Z,1.47
2023-03-26T03:17:41.033Z,1.48
2023-03-26T03:18:41.252Z,1.5
2023-03-26T03:19:41.771Z,1.52
2023-03-26T03:20:42.195Z,1.52
2023-03-26T03:21:43.229Z,1.48
2023-03-26T03:22:42.927Z,1.45
2023-03-26T03:23:44.646Z,1.43
2023-03-26T03:24:43.557Z,1.42
2023-03-26T03:25:43.784Z,1.46
2023-03-26T03:26:44.378Z,1.46
2023-03-26T03:27:44.640Z,1.46
2023-03-26T03:28:45.039Z,1.45
2023-03-26T03:29:45.300Z,1.46
2023-03-26T03:30:45.575Z,1.49
2023-03-26T03:31:45.952Z,1.51
2023-03-26T03:32:46.608Z,1.52
2023-03-26T03:33:46.793Z,1.53
2023-03-26T03:34:47.071Z,1.52
2023-03-26T03:35:48.766Z,1.54
2023-03-26T03:36:47.729Z,1.54
2023-03-26T03:37:48.057Z,1.53
2023-03-26T03:38:49.639Z,1.53
2023-03-26T03:39:48.976Z,1.55
2023-03-26T03:40:49.136Z,1.59
2023-03-26T03:41:49.504Z,1.61
2023-03-26T03:42:50.134Z,1.66
2023-03-26T03:43:50.334Z,1.67
2023-03-26T03:44:50.562Z,1.66
2023-03-26T03:45:51.002Z,1.67
2023-03-26T03:46:51.297Z,1.69
2023-03-26T03:47:51.724Z,1.73
2023-03-26T03:48:52.017Z,1.72
2023-03-26T03:49:52.420Z,1.66
2023-03-26T03:50:56.562Z,1.61
2023-03-26T03:51:53.878Z,1.59
2023-03-26T03:52:54.255Z,1.57
2023-03-26T03:53:54.596Z,1.54
2023-03-26T03:54:56.422Z,1.55
2023-03-26T03:55:56.888Z,1.58
2023-03-26T03:56:56.050Z,1.59
2023-03-26T03:57:56.157Z,1.58
2023-03-26T03:58:57.090Z,1.56
2023-03-26T03:59:57.400Z,1.56
2023-03-26T04:00:57.725Z,1.55
2023-03-26T04:01:58.139Z,1.55
2023-03-26T04:02:58.736Z,1.57
2023-03-26T04:03:59.330Z,1.6
2023-03-26T04:04:59.481Z,1.62
2023-03-26T04:05:59.483Z,1.62
2023-03-26T04:07:00.014Z,1.63
2023-03-26T04:08:00.422Z,1.62
2023-03-26T04:09:00.511Z,1.61
2023-03-26T04:10:01.380Z,1.57
2023-03-26T04:11:01.265Z,1.55
2023-03-26T04:12:01.583Z,1.56
2023-03-26T04:13:02.220Z,1.55
2023-03-26T04:14:02.411Z,1.55
2023-03-26T04:15:02.831Z,1.56
2023-03-26T04:16:03.601Z,1.59
2023-03-26T04:17:03.457Z,1.6
2023-03-26T04:18:04.363Z,1.62
2023-03-26T04:19:04.095Z,1.66
2023-03-26T04:20:05.122Z,1.68
2023-03-26T04:21:05.834Z,1.69
2023-03-26T04:22:05.257Z,1.63
2023-03-26T04:23:05.756Z,1.56
2023-03-26T04:24:06.574Z,1.55
2023-03-26T04:25:06.836Z,1.55
2023-03-26T04:26:08.740Z,1.5
2023-03-26T04:27:09.872Z,1.47
2023-03-26T04:28:09.070Z,1.48
2023-03-26T04:29:10.404Z,1.51
2023-03-26T04:30:13.697Z,1.56
2023-03-26T04:31:14.283Z,1.6
2023-03-26T04:32:22.943Z,1.58
2023-03-26T04:33:15.648Z,1.55
2023-03-26T04:34:22.631Z,1.48
2023-03-26T04:35:20.521Z,1.46
2023-03-26T04:36:25.605Z,1.44
2023-03-26T04:37:26.446Z,1.43
2023-03-26T04:38:23.879Z,1.43
2023-03-26T04:39:24.714Z,1.38
2023-03-26T04:40:24.602Z,1.36
2023-03-26T04:41:24.923Z,1.34
2023-03-26T04:42:25.329Z,1.33
2023-03-26T04:43:26.693Z,1.3
2023-03-26T04:44:26.372Z,1.32
2023-03-26T04:45:27.419Z,1.37
2023-03-26T04:46:28.064Z,1.41
2023-03-26T04:47:27.712Z,1.44
2023-03-26T04:48:28.050Z,1.47
2023-03-26T04:49:28.253Z,1.51
2023-03-26T04:50:28.747Z,1.48
2023-03-26T04:51:36.454Z,1.46
2023-03-26T04:52:34.824Z,1.49
2023-03-26T04:53:35.253Z,1.53
2023-03-26T04:54:34.652Z,1.55
2023-03-26T04:55:43.157Z,1.59
2023-03-26T04:56:47.287Z,1.61
2023-03-26T04:57:42.956Z,1.53
2023-03-26T04:58:40.263Z,1.46
2023-03-26T04:59:40.716Z,1.46
2023-03-26T05:00:43.928Z,1.45
2023-03-26T05:01:43.448Z,1.43
2023-03-26T05:02:42.994Z,1.44
2023-03-26T05:03:42.277Z,1.44
2023-03-26T05:04:42.651Z,1.46
2023-03-26T05:05:42.891Z,1.5
2023-03-26T05:06:43.314Z,1.51
2023-03-26T05:07:43.627Z,1.53
2023-03-26T05:08:43.837Z,1.55
2023-03-26T05:09:44.250Z,1.54
2023-03-26T05:10:44.575Z,1.54
2023-03-26T05:11:45.083Z,1.54
2023-03-26T05:12:45.297Z,1.53
2023-03-26T05:13:45.734Z,1.54
2023-03-26T05:14:46.025Z,1.56
2023-03-26T05:15:46.972Z,1.53
2023-03-26T05:16:49.052Z,1.53
2023-03-26T05:17:47.125Z,1.54
2023-03-26T05:18:47.484Z,1.55
2023-03-26T05:19:47.805Z,1.59
2023-03-26T05:20:48.153Z,1.53
2023-03-26T05:21:48.649Z,1.51
2023-03-26T05:22:50.087Z,1.51
2023-03-26T05:23:49.374Z,1.56
2023-03-26T05:24:49.570Z,1.59
2023-03-26T05:25:50.068Z,1.66
2023-03-26T05:26:53.127Z,1.78
2023-03-26T05:27:50.635Z,1.87
2023-03-26T05:28:52.543Z,1.97
2023-03-26T05:29:51.759Z,2.03
2023-03-26T05:30:53.241Z,2.03
2023-03-26T05:31:52.185Z,2.03
2023-03-26T05:32:52.562Z,2.06
2023-03-26T05:33:53.168Z,2.09
2023-03-26T05:34:53.123Z,2.13
2023-03-26T05:36:56.314Z,2.22
2023-03-26T05:37:59.602Z,2.29
2023-03-26T05:38:57.151Z,2.31
2023-03-26T05:39:58.208Z,2.32
2023-03-26T05:41:05.966Z,2.34
2023-03-26T05:41:58.599Z,2.4
2023-03-26T05:42:58.746Z,2.46
2023-03-26T05:43:59.230Z,2.52
2023-03-26T05:44:59.449Z,2.55
2023-03-26T05:46:00.239Z,2.61
2023-03-26T05:47:00.166Z,2.75
2023-03-26T05:48:00.473Z,2.94
2023-03-26T05:49:01.214Z,3.07
2023-03-26T05:50:01.214Z,3.19
2023-03-26T05:51:01.644Z,3.23
2023-03-26T05:52:01.953Z,3.26
2023-03-26T05:53:02.474Z,3.3
2023-03-26T05:54:02.775Z,3.38
2023-03-26T05:55:03.506Z,3.48
2023-03-26T05:56:04.032Z,3.56
2023-03-26T05:57:03.966Z,3.61
2023-03-26T05:58:04.163Z,3.64
2023-03-26T05:59:04.553Z,3.74
2023-03-26T06:00:06.603Z,3.81
2023-03-26T06:01:08.163Z,3.89
2023-03-26T06:02:05.721Z,3.94
2023-03-26T06:03:06.306Z,3.96
2023-03-26T06:04:06.610Z,3.98
2023-03-26T06:05:07.335Z,4.01
2023-03-26T06:06:09.409Z,4.02
2023-03-26T06:07:08.700Z,4.09
2023-03-26T06:08:08.095Z,4.14
2023-03-26T06:09:09.736Z,4.16
2023-03-26T06:10:09.465Z,4.2
2023-03-26T06:11:10.483Z,4.22
2023-03-26T06:12:10.679Z,4.2
2023-03-26T06:13:09.724Z,4.2
2023-03-26T06:14:10.239Z,4.24
2023-03-26T06:15:11.723Z,4.3
2023-03-26T06:16:26.410Z,4.36
2023-03-26T06:17:15.436Z,4.36
2023-03-26T06:18:15.637Z,4.37
2023-03-26T06:19:16.158Z,4.45
2023-03-26T06:20:19.176Z,4.47
2023-03-26T06:21:16.672Z,4.48
2023-03-26T06:22:17.716Z,4.52
2023-03-26T06:23:19.253Z,4.56
2023-03-26T06:24:19.224Z,4.6
2023-03-26T06:25:19.582Z,4.68
2023-03-26T06:26:20.413Z,4.69
2023-03-26T06:27:20.531Z,4.67
2023-03-26T06:28:20.772Z,4.68
2023-03-26T06:29:21.463Z,4.7
2023-03-26T06:30:21.785Z,4.78
2023-03-26T06:31:22.219Z,4.83
2023-03-26T06:32:22.317Z,4.84
2023-03-26T06:33:24.483Z,4.91
2023-03-26T06:34:23.211Z,4.97
2023-03-26T06:35:23.339Z,5.05
2023-03-26T06:36:23.748Z,5.06
2023-03-26T06:37:24.180Z,5.14
2023-03-26T06:38:24.999Z,5.18
2023-03-26T06:39:24.914Z,5.25
2023-03-26T06:40:25.520Z,5.28
2023-03-26T06:41:25.696Z,5.34
2023-03-26T06:42:32.164Z,5.33
2023-03-26T06:43:28.095Z,5.34
2023-03-26T06:44:29.124Z,5.35
2023-03-26T06:45:30.259Z,5.46
2023-03-26T06:46:29.488Z,5.6
2023-03-26T06:47:29.982Z,5.59
2023-03-26T06:48:30.254Z,5.66
2023-03-26T06:49:30.674Z,5.75
2023-03-26T06:50:30.907Z,5.76
2023-03-26T06:51:31.329Z,5.8
2023-03-26T06:52:31.909Z,5.84
2023-03-26T06:53:32.014Z,5.88
2023-03-26T06:54:32.676Z,5.88
2023-03-26T06:55:33.100Z,5.94
2023-03-26T06:56:33.473Z,6.08
2023-03-26T06:57:33.822Z,6.14
2023-03-26T06:58:34.465Z,6.13
2023-03-26T06:59:34.662Z,6.18
2023-03-26T07:00:34.862Z,6.25
2023-03-26T07:01:35.374Z,6.27
2023-03-26T07:02:36.166Z,6.28
2023-03-26T07:03:36.093Z,6.37
2023-03-26T07:04:36.483Z,6.45
2023-03-26T07:05:37.635Z,6.37
2023-03-26T07:06:38.397Z,6.26
2023-03-26T07:07:45.964Z,6.28
2023-03-26T07:08:39.730Z,6.4
2023-03-26T07:09:40.380Z,6.38
2023-03-26T07:10:40.373Z,6.31
2023-03-26T07:11:40.830Z,6.34
2023-03-26T07:12:41.209Z,6.35
2023-03-26T07:13:41.775Z,6.44
2023-03-26T07:14:42.272Z,6.54
2023-03-26T07:15:43.466Z,6.64
2023-03-26T07:16:42.866Z,6.74
2023-03-26T07:17:43.209Z,6.94
2023-03-26T07:18:43.601Z,7.05
2023-03-26T07:19:44.104Z,7.05
2023-03-26T07:20:45.825Z,7.16
2023-03-26T07:21:45.665Z,7.11
2023-03-26T07:22:45.867Z,7.05
2023-03-26T07:23:46.292Z,6.95
2023-03-26T07:24:46.642Z,6.9
2023-03-26T07:25:48.044Z,7
2023-03-26T07:29:07.939Z,7.21
2023-03-26T07:33:19.331Z,7.53
2023-03-26T07:46:33.541Z,7.24
2023-03-26T07:47:35.105Z,7.32
2023-03-26T07:48:46.938Z,7.38
2023-03-26T07:49:35.094Z,7.4
2023-03-26T07:50:35.511Z,7.46
2023-03-26T07:51:35.999Z,7.5
2023-03-26T07:52:36.224Z,7.51
2023-03-26T07:53:36.510Z,7.57
2023-03-26T07:54:36.978Z,7.51
2023-03-26T08:01:03.539Z,7.25
2023-03-26T08:07:16.166Z,7.23
2023-03-26T08:20:43.396Z,7.37
2023-03-26T08:22:42.401Z,7.42
2023-03-26T08:30:58.850Z,7.11
2023-03-26T08:32:00.469Z,7.13
2023-03-26T08:33:11.749Z,7.13
2023-03-26T08:34:00.377Z,7.11
2023-03-26T08:34:59.457Z,7.05
2023-03-26T08:36:00.956Z,7.08
2023-03-26T08:37:00.400Z,7.1
2023-03-26T08:38:00.708Z,7.09
2023-03-26T08:39:01.225Z,7.1
2023-03-26T08:40:01.411Z,7.13
2023-03-26T10:52:15.850Z,9.16
2023-03-26T10:55:24.312Z,9.05
2023-03-26T10:58:48.366Z,9.11
2023-03-26T10:59:37.355Z,9.16
2023-03-26T11:00:48.255Z,9.4
2023-03-26T11:34:00.976Z,9.78
2023-03-26T11:35:06.018Z,9.73
2023-03-26T11:42:22.127Z,8.31
2023-03-26T11:44:27.775Z,8.15
2023-03-26T11:45:29.581Z,8.03
2023-03-26T11:49:32.806Z,7.92
2023-03-26T11:50:38.157Z,8.12
2023-03-26T11:51:40.230Z,8.16
2023-03-26T11:52:37.727Z,8.27
2023-03-26T11:53:39.559Z,8.37
2023-03-26T11:54:38.601Z,8.28
2023-03-26T11:57:53.788Z,8.36
2023-03-26T12:00:56.231Z,8.28
2023-03-26T12:02:59.181Z,8.29
2023-03-26T12:05:59.970Z,8.59
2023-03-26T12:08:02.265Z,8.62
2023-03-26T12:09:03.057Z,8.51
2023-03-26T12:10:17.830Z,8.48
2023-03-26T12:12:06.049Z,8.37
2023-03-26T12:15:16.204Z,8.4
2023-03-26T12:16:17.802Z,8.49
2023-03-26T12:19:20.960Z,8.23
2023-03-26T12:21:23.793Z,8.22
2023-03-26T12:25:32.859Z,8.46
2023-03-26T12:27:33.798Z,8.5
2023-03-26T12:28:34.515Z,8.53
2023-03-26T12:29:34.741Z,8.57
2023-03-26T12:30:37.321Z,8.55
2023-03-26T12:33:37.739Z,8.63
2023-03-26T12:34:39.801Z,8.69
2023-03-26T12:35:38.799Z,8.73
2023-03-26T12:36:39.183Z,8.73
2023-03-26T12:37:41.026Z,8.66
2023-03-26T12:38:39.770Z,8.65
2023-03-26T12:40:07.415Z,8.63
2023-03-26T12:40:44.831Z,8.63
2023-03-26T12:44:46.086Z,8.53
2023-03-26T12:44:48.637Z,8.58
2023-03-26T12:45:00.075Z,8.43
2023-03-26T12:47:45.972Z,8.41
2023-03-26T12:48:03.739Z,8.39
2023-03-26T12:49:05.836Z,8.31
2023-03-26T12:49:59.026Z,8.23
2023-03-26T13:20:33.146Z,7.03
2023-03-26T13:47:28.560Z,8.02
2023-03-26T13:49:37.239Z,8.16
2023-03-26T13:50:39.485Z,8.08
2023-03-26T14:03:09.976Z,8.2
2023-03-26T14:06:12.978Z,8.02
2023-03-26T14:09:27.622Z,8
2023-03-26T14:10:25.272Z,7.99
2023-03-26T14:53:34.373Z,8.21
2023-03-26T14:54:31.274Z,8.19
2023-03-26T15:49:19.688Z,6.54
2023-03-26T15:57:34.299Z,6.21
2023-03-26T16:11:00.588Z,5.91
2023-03-26T16:17:26.890Z,5.78
2023-03-26T16:18:30.648Z,5.71
2023-03-26T16:24:44.302Z,5.37
2023-03-26T16:27:45.736Z,5.32
2023-03-26T16:33:02.993Z,5.17
2023-03-26T16:41:31.850Z,4.96
2023-03-26T16:55:13.078Z,4.73
2023-03-26T17:04:27.376Z,4.59
2023-03-26T17:16:48.435Z,4.69
2023-03-26T17:35:49.204Z,4.72
2023-03-26T17:41:56.404Z,4.67
2023-03-26T17:43:56.638Z,4.71
2023-03-26T17:44:56.622Z,4.72
2023-03-26T17:46:03.674Z,4.74
2023-03-26T17:47:01.345Z,4.73
2023-03-26T17:55:20.639Z,4.69
2023-03-26T17:56:24.640Z,4.68
2023-03-26T17:57:32.434Z,4.67
2023-03-26T17:58:32.135Z,4.65
2023-03-26T17:59:31.838Z,4.59
2023-03-26T18:00:35.641Z,4.51
2023-03-26T18:01:39.866Z,4.48
2023-03-26T18:02:45.357Z,4.46
2023-03-26T18:03:49.194Z,4.49
2023-03-26T18:04:44.776Z,4.46
2023-03-26T18:05:47.049Z,4.46
2023-03-26T18:17:16.516Z,4.47
2023-03-26T18:18:29.521Z,4.46
2023-03-26T18:19:19.900Z,4.47
2023-03-26T18:20:27.313Z,4.45
2023-03-26T18:25:30.986Z,4.46
2023-03-26T18:31:47.948Z,4.45
2023-03-26T18:35:56.702Z,4.37
2023-03-26T18:37:58.707Z,4.35
2023-03-26T18:38:59.243Z,4.35
2023-03-26T18:41:01.899Z,4.33
2023-03-26T18:42:02.227Z,4.31
2023-03-26T18:43:02.447Z,4.28
2023-03-26T18:44:05.310Z,4.27
2023-03-26T18:46:06.230Z,4.19
2023-03-26T18:47:07.588Z,4.18
2023-03-26T18:51:12.996Z,4.15
2023-03-26T18:54:21.047Z,4.12
2023-03-26T18:55:18.821Z,4.11
2023-03-26T18:59:30.772Z,4.14
2023-03-26T19:00:29.065Z,4.11
2023-03-26T19:01:31.094Z,4.11
2023-03-26T19:02:29.676Z,4.09
2023-03-26T19:04:35.159Z,4.02
2023-03-26T19:05:35.962Z,4
2023-03-26T19:06:38.517Z,3.99
2023-03-26T19:07:36.074Z,3.97
2023-03-26T19:08:42.278Z,3.95
2023-03-26T19:09:41.109Z,3.96
2023-03-26T19:10:40.009Z,3.94
2023-03-26T19:11:43.172Z,3.9
2023-03-26T19:12:40.728Z,3.88
2023-03-26T19:13:41.136Z,3.87
2023-03-26T19:15:46.481Z,3.88
2023-03-26T19:16:54.380Z,3.88
2023-03-26T19:17:52.059Z,3.88
2023-03-26T19:18:50.099Z,3.88
2023-03-26T19:19:51.416Z,3.86
2023-03-26T19:20:54.625Z,3.86
2023-03-26T19:21:53.416Z,3.85
2023-03-26T19:22:53.998Z,3.84
2023-03-26T19:23:54.826Z,3.87
2023-03-26T19:24:58.633Z,3.9
2023-03-26T19:25:57.522Z,3.92
2023-03-26T19:26:56.686Z,3.91
2023-03-26T19:27:57.633Z,3.9
2023-03-26T19:28:58.656Z,3.9
2023-03-26T19:29:57.828Z,3.9
2023-03-26T19:39:24.257Z,3.83
2023-03-26T19:40:23.293Z,3.75
2023-03-26T19:41:23.313Z,3.68
2023-03-26T19:42:43.423Z,3.64
2023-03-26T19:43:22.857Z,3.6
2023-03-26T19:44:30.904Z,3.53
2023-03-26T19:45:23.543Z,3.48
2023-03-26T19:46:25.627Z,3.45
2023-03-26T19:50:35.148Z,3.48
2023-03-26T19:51:18.543Z,3.46
2023-03-26T19:51:35.725Z,3.47
2023-03-26T19:52:39.564Z,3.48
2023-03-26T19:53:37.244Z,3.49
2023-03-26T19:56:44.341Z,3.38
2023-03-26T19:57:44.612Z,3.37
2023-03-26T19:58:45.141Z,3.31
2023-03-26T19:59:45.249Z,3.25
2023-03-26T20:00:48.644Z,3.24
2023-03-26T20:01:48.781Z,3.25
2023-03-26T20:02:49.322Z,3.23
2023-03-26T20:03:52.141Z,3.21
2023-03-26T20:04:50.045Z,3.19
2023-03-26T20:05:50.265Z,3.21
2023-03-26T20:06:50.534Z,3.15
2023-03-26T20:07:51.759Z,3.1
2023-03-26T20:08:52.583Z,3.07
2023-03-26T20:09:52.614Z,3.04
2023-03-26T20:10:52.190Z,3.05
2023-03-26T20:11:52.396Z,3.01
2023-03-26T20:12:53.220Z,2.9
2023-03-26T20:13:53.252Z,2.83
2023-03-26T20:14:53.634Z,2.8
2023-03-26T20:16:57.963Z,2.79
2023-03-26T20:17:58.309Z,2.82
2023-03-26T20:18:59.810Z,2.83
2023-03-26T20:19:59.320Z,2.83
2023-03-26T20:20:59.613Z,2.82
2023-03-26T20:21:59.832Z,2.82
2023-03-26T20:23:00.249Z,2.81
2023-03-26T20:24:01.354Z,2.8
2023-03-26T20:25:00.971Z,2.74
2023-03-26T20:26:01.290Z,2.69
2023-03-26T20:27:01.805Z,2.64
2023-03-26T20:28:02.128Z,2.63
2023-03-26T20:29:03.998Z,2.56
2023-03-26T20:30:02.645Z,2.55
2023-03-26T20:31:03.285Z,2.57
2023-03-26T20:32:03.575Z,2.57
2023-03-26T20:33:12.849Z,2.59
2023-03-26T20:36:14.268Z,2.6
2023-03-26T20:37:17.124Z,2.58
2023-03-26T20:38:18.212Z,2.58
2023-03-26T20:39:17.356Z,2.57
2023-03-26T20:40:18.455Z,2.58
2023-03-26T20:42:20.839Z,2.58
2023-03-26T20:43:21.361Z,2.6
2023-03-26T20:44:22.100Z,2.56
2023-03-26T20:45:23.223Z,2.55
2023-03-26T20:46:31.333Z,2.58
2023-03-26T20:47:24.510Z,2.56
2023-03-26T20:48:25.370Z,2.56
2023-03-26T20:49:25.190Z,2.49
2023-03-26T20:50:25.605Z,2.39
2023-03-26T20:51:26.038Z,2.32
2023-03-26T20:52:26.850Z,2.28
2023-03-26T20:53:26.650Z,2.23
2023-03-26T20:54:28.094Z,2.19
2023-03-26T20:55:27.588Z,2.12
2023-03-26T20:56:27.796Z,2.07
2023-03-26T20:57:28.331Z,2.12
2023-03-26T20:58:31.573Z,2.18
2023-03-26T20:59:29.727Z,2.12
2023-03-26T21:00:30.093Z,2.08
2023-03-26T21:01:30.218Z,2.12
2023-03-26T21:02:30.786Z,2.14
2023-03-26T21:03:30.936Z,2.16
2023-03-26T21:04:31.333Z,2.2
2023-03-26T21:05:31.950Z,2.24
2023-03-26T21:06:32.270Z,2.26
2023-03-26T21:07:32.376Z,2.26
2023-03-26T21:08:33.398Z,2.25
2023-03-26T21:09:33.794Z,2.23
2023-03-26T21:10:34.147Z,2.21
2023-03-26T21:14:42.985Z,2.12
2023-03-26T21:15:43.381Z,2.14
2023-03-26T21:16:43.768Z,2.14
2023-03-26T21:17:44.445Z,2.12
2023-03-26T21:18:44.225Z,2.12
2023-03-26T21:19:45.465Z,2.13
2023-03-26T21:29:03.340Z,2.2
2023-03-26T21:30:10.526Z,2.22
2023-03-26T21:32:13.403Z,2.19
2023-03-26T21:33:13.092Z,2.17
2023-03-26T21:34:13.933Z,2.16
2023-03-26T21:35:14.649Z,2.16
2023-03-26T21:36:15.569Z,2.15
2023-03-26T21:37:18.328Z,2.16
2023-03-26T21:38:18.454Z,2.15
2023-03-26T21:39:16.561Z,2.16
2023-03-26T21:40:17.772Z,2.18
2023-03-26T21:42:18.551Z,2.12
2023-03-26T21:43:19.622Z,2.1
2023-03-26T21:44:18.889Z,2.09
2023-03-26T21:45:20.147Z,2.07
2023-03-26T21:46:19.886Z,2.06
2023-03-26T21:47:21.617Z,2.06
2023-03-26T21:48:20.467Z,2.07
2023-03-26T21:49:20.984Z,2.11
2023-03-26T21:50:22.984Z,2.13
2023-03-26T21:51:21.626Z,2.13
2023-03-26T21:52:22.041Z,2.13
2023-03-26T21:53:22.416Z,2.14
2023-03-26T21:55:27.380Z,2.2
2023-03-26T22:01:51.011Z,2.24
2023-03-26T22:07:54.188Z,2.25
2023-03-26T22:08:52.012Z,2.26
2023-03-26T22:09:52.309Z,2.27
2023-03-26T22:10:52.168Z,2.25
2023-03-26T22:11:52.567Z,2.23
2023-03-26T22:12:53.058Z,2.23
2023-03-26T22:13:53.426Z,2.25
2023-03-26T22:14:53.618Z,2.25
2023-03-26T22:15:54.461Z,2.23
2023-03-26T22:16:56.873Z,2.24
2023-03-26T22:18:02.988Z,2.23
2023-03-26T22:18:55.603Z,2.2
2023-03-26T22:19:55.819Z,2.22
2023-03-26T22:20:56.973Z,2.23
2023-03-26T22:21:56.640Z,2.24
2023-03-26T22:22:56.866Z,2.26
2023-03-26T22:23:57.464Z,2.27
2023-03-26T22:24:57.681Z,2.28
2023-03-26T22:25:57.988Z,2.31
2023-03-26T22:26:58.428Z,2.32
2023-03-26T22:27:58.731Z,2.32
2023-03-26T22:29:00.793Z,2.3
2023-03-26T22:29:59.460Z,2.32
2023-03-26T22:31:04.908Z,2.31
2023-03-26T22:32:05.526Z,2.32
2023-03-26T22:33:02.902Z,2.31
2023-03-26T22:34:03.371Z,2.26
2023-03-26T22:35:03.993Z,2.23
2023-03-26T22:36:04.609Z,2.23
2023-03-26T22:37:04.523Z,2.23
2023-03-26T22:38:05.936Z,2.26
2023-03-26T22:39:05.151Z,2.29
2023-03-26T22:40:07.200Z,2.26
2023-03-26T22:41:06.291Z,2.25
2023-03-26T22:42:06.154Z,2.26
2023-03-26T22:43:06.513Z,2.27
2023-03-26T22:44:19.001Z,2.29
2023-03-26T22:45:08.352Z,2.33
2023-03-26T22:46:10.868Z,2.36
2023-03-26T22:47:08.483Z,2.37
2023-03-26T22:48:08.879Z,2.36
2023-03-26T22:49:09.320Z,2.33
2023-03-26T22:50:10.206Z,2.29
2023-03-26T22:51:09.733Z,2.29
2023-03-26T22:52:10.550Z,2.32
2023-03-26T22:53:10.524Z,2.33
2023-03-26T22:54:10.990Z,2.32
2023-03-26T22:55:11.827Z,2.3
2023-03-26T22:56:12.427Z,2.3
2023-03-26T22:57:11.972Z,2.3
2023-03-26T22:58:12.232Z,2.3
2023-03-26T22:59:13.275Z,2.28
2023-03-26T23:00:13.789Z,2.29
2023-03-26T23:01:19.266Z,2.31
2023-03-26T23:02:17.078Z,2.28
2023-03-26T23:03:17.289Z,2.29
2023-03-26T23:04:31.658Z,2.29
2023-03-26T23:05:19.684Z,2.3
2023-03-26T23:06:20.031Z,2.33
2023-03-26T23:07:20.351Z,2.34
2023-03-26T23:08:22.112Z,2.35
2023-03-26T23:09:21.429Z,2.35
2023-03-26T23:10:24.373Z,2.37
2023-03-26T23:11:21.942Z,2.38
2023-03-26T23:12:22.171Z,2.34
2023-03-26T23:13:23.578Z,2.34
2023-03-26T23:14:23.504Z,2.36
2023-03-26T23:15:23.309Z,2.36
2023-03-26T23:16:23.648Z,2.38
2023-03-26T23:17:24.025Z,2.37
2023-03-26T23:18:24.759Z,2.36
2023-03-26T23:19:26.319Z,2.35
2023-03-26T23:20:25.181Z,2.35
2023-03-26T23:21:25.510Z,2.34
2023-03-26T23:22:25.815Z,2.33
2023-03-26T23:23:31.159Z,2.28
2023-03-26T23:24:28.592Z,2.27
2023-03-26T23:25:28.811Z,2.26
2023-03-26T23:26:32.679Z,2.23
2023-03-26T23:27:33.842Z,2.23
2023-03-26T23:28:34.055Z,2.21
2023-03-26T23:29:33.521Z,2.21
2023-03-26T23:30:33.553Z,2.17
2023-03-26T23:31:33.980Z,2.14
2023-03-26T23:32:37.058Z,2.15
2023-03-26T23:33:38.103Z,2.17
2023-03-26T23:34:35.633Z,2.13
2023-03-26T23:35:36.109Z,2.14
2023-03-26T23:36:36.370Z,2.17
2023-03-26T23:37:36.669Z,2.17
2023-03-26T23:38:44.078Z,2.17
2023-03-26T23:39:41.973Z,2.17
2023-03-26T23:40:57.210Z,2.19
2023-03-26T23:41:45.633Z,2.18
2023-03-26T23:42:45.515Z,2.16
2023-03-26T23:43:54.740Z,2.13
2023-03-26T23:44:48.300Z,2.13
2023-03-26T23:45:48.920Z,2.13
2023-03-26T23:46:48.841Z,2.15
2023-03-26T23:47:49.281Z,2.22
2023-03-26T23:48:50.051Z,2.24
2023-03-26T23:49:50.064Z,2.26
2023-03-26T23:50:54.444Z,2.28
2023-03-26T23:51:51.104Z,2.27
2023-03-26T23:52:51.414Z,2.24
2023-03-26T23:53:51.832Z,2.17
2023-03-26T23:54:52.259Z,2.14
2023-03-26T23:55:53.896Z,2.14
2023-03-26T23:56:52.888Z,2.17
2023-03-26T23:57:54.517Z,2.17
2023-03-26T23:58:54.013Z,2.15
2023-03-26T23:59:54.537Z,2.1
